WetterOnline ( https://www.wetteronline.at )

Wetter aktuell Neustadt

Aktuelles Wetter: Pelzerhaken/Neustadt i.H. (2m)

6-stündlich | Neueste Meldungen
Ortszeit Temperatur Wetter
Sa, 22.02. 7:00 7.7° C bedeckt
Sa, 22.02. 1:00 6.8° C bewölkt
Fr, 21.02. 19:00 6.9° C bedeckt
Fr, 21.02. 13:00 6.8° C Sprühregen
Fr, 21.02. 7:00 4.1° C leicht bewölkt
Fr, 21.02. 1:00 5.5° C Sprühregen
Do, 20.02. 19:00 7.0° C bedeckt
Do, 20.02. 13:00 6.0° C bedeckt
Ortszeit Temperatur Wetter
Sa, 22.02. 8:30 6.6° C leichter Regen
Sa, 22.02. 8:20 6.6° C leichter Regen
Sa, 22.02. 8:10 6.5° C leichter Regen
Sa, 22.02. 8:00 6.8° C leichter Regen
Sa, 22.02. 7:50 6.8° C leichter Regen
Sa, 22.02. 7:40 6.9° C leichter Regen
Sa, 22.02. 7:30 7.3° C Sprühregen
Sa, 22.02. 7:00 7.7° C bedeckt
Ortszeit Relative Feuchte Sichtweite
Sa, 22.02. 7:00 80% 24 km
Sa, 22.02. 1:00 90% 17 km
Fr, 21.02. 19:00 79% 24 km
Fr, 21.02. 13:00 82% 10 km
Fr, 21.02. 7:00 88% 29 km
Fr, 21.02. 1:00 90% 29 km
Do, 20.02. 19:00 91% 35 km
Do, 20.02. 13:00 99% 3.7 km
Ortszeit Relative Feuchte Sichtweite
Sa, 22.02. 8:30 92% 10 km
Sa, 22.02. 8:20 92% -
Sa, 22.02. 8:10 91% -
Sa, 22.02. 8:00 89% 8 km
Sa, 22.02. 7:50 89% -
Sa, 22.02. 7:40 88% -
Sa, 22.02. 7:30 83% 13 km
Sa, 22.02. 7:00 80% 24 km
Ortszeit Niederschlagsmenge Niederschlagsart
Sa, 22.02. 7:00 0.1 l/m2 in 12 Std. Regen
Sa, 22.02. 1:00 0.1 l/m2 in 6 Std. Regen
Fr, 21.02. 19:00 0.1 l/m2 in 12 Std. Regen
Fr, 21.02. 13:00 0.1 l/m2 in 6 Std. Regen
Fr, 21.02. 7:00 5 l/m2 in 12 Std. Regen
Fr, 21.02. 1:00 5 l/m2 in 6 Std. Regen
Do, 20.02. 19:00 1 l/m2 in 12 Std. Regen
Do, 20.02. 13:00 1 l/m2 in 6 Std. Regen
Ortszeit Niederschlagsmenge Niederschlagsart
Sa, 22.02. 8:30 0.6 l/m2 in 1 Std. -
Sa, 22.02. 8:20 keine Meldung -
Sa, 22.02. 8:10 keine Meldung -
Sa, 22.02. 8:00 0.1 l/m2 in 1 Std. Regen
Sa, 22.02. 7:50 keine Meldung -
Sa, 22.02. 7:40 keine Meldung -
Sa, 22.02. 7:30 0.1 l/m2 in 1 Std. -
Sa, 22.02. 7:00 0.1 l/m2 in 1 Std. Regen
Ortszeit Stärke Spitze Richtung
km/h Bft. km/h Grad Sektor
Sa, 22.02. 7:00 41 6 63 230° SW
Sa, 22.02. 1:00 30 5 52 220° SW
Fr, 21.02. 19:00 33 5 54 230° SW
Fr, 21.02. 13:00 28 4 46 240° SW
Fr, 21.02. 7:00 18 3 61 250° W
Fr, 21.02. 1:00 19 3 56 280° W
Do, 20.02. 19:00 36 5 50 190° S
Do, 20.02. 13:00 33 5 43 200° S
Ortszeit Stärke Spitze Richtung
km/h Bft. km/h Grad Sektor
Sa, 22.02. 8:30 32 5 58 220° SW
Sa, 22.02. 8:20 32 5 - 220° SW
Sa, 22.02. 8:10 36 5 - 230° SW
Sa, 22.02. 8:00 37 5 57 230° SW
Sa, 22.02. 7:50 37 5 - 230° SW
Sa, 22.02. 7:40 37 5 - 230° SW
Sa, 22.02. 7:30 37 5 57 230° SW
Sa, 22.02. 7:00 41 6 63 230° SW
Ortszeit Untergrenze Bedeckung Gattung
total tief tief mittel hoch
Sa, 22.02. 7:00 600 m 8/8 8/8 - - -
Sa, 22.02. 1:00 510 m 7/8 8/8 - - -
Fr, 21.02. 19:00 750 m 8/8 8/8 - - -
Fr, 21.02. 13:00 570 m 7/8 7/8 - - -
Fr, 21.02. 7:00 1020 m 1/8 3/8 - - -
Fr, 21.02. 1:00 540 m 7/8 7/8 - - -
Do, 20.02. 19:00 840 m 8/8 8/8 - - -
Do, 20.02. 13:00 210 m 8/8 8/8 - - -
Ortszeit Bedeckungsgrad in Achtel und Wolkenuntergrenze
Sa, 22.02. 8:30 4(690m) 5(2100m) 7(2400m)
Sa, 22.02. 8:20 4(690m) 5(2100m) 7(2400m)
Sa, 22.02. 8:10 4(600m) 6(750m) 7(2400m)
Sa, 22.02. 8:00 7(600m) 8(750m)
Sa, 22.02. 7:50 7(600m)
Sa, 22.02. 7:40 8(600m)
Sa, 22.02. 7:30 8(600m)
Sa, 22.02. 7:00 8(600m)
Ortszeit Luftdruck NN (hPa) Tendenz (hPa in 3 Std.)
Sa, 22.02. 7:00 1010 - 2,3
Sa, 22.02. 1:00 1016 - 2,2
Fr, 21.02. 19:00 1019 - 0,1
Fr, 21.02. 13:00 1018 + 1,5
Fr, 21.02. 7:00 1013 + 4,0
Fr, 21.02. 1:00 1005 + 2,5
Do, 20.02. 19:00 1006 - 3,0
Do, 20.02. 13:00 1011 - 2,2
Ortszeit Luftdruck NN (hPa) Tendenz (hPa in 3 Std.)
Sa, 22.02. 8:30 1009 - 2,1
Sa, 22.02. 8:20 1009 keine Meldung
Sa, 22.02. 8:10 1009 keine Meldung
Sa, 22.02. 8:00 1010 - 2,0
Sa, 22.02. 7:50 1010 keine Meldung
Sa, 22.02. 7:40 1010 keine Meldung
Sa, 22.02. 7:30 1010 - 2,2
Sa, 22.02. 7:00 1010 - 2,3
Ortszeit Schneehöhe (cm)
Sa, 22.02. 7:00 0
Sa, 22.02. 1:00 0
Fr, 21.02. 19:00 0
Fr, 21.02. 13:00 0
Fr, 21.02. 7:00 0
Fr, 21.02. 1:00 0
Do, 20.02. 19:00 0
Do, 20.02. 13:00 0
Ortszeit Schneehöhe (cm)
Sa, 22.02. 8:30 0
Sa, 22.02. 8:20 0
Sa, 22.02. 8:10 0
Sa, 22.02. 8:00 0
Sa, 22.02. 7:50 0
Sa, 22.02. 7:40 0
Sa, 22.02. 7:30 0
Sa, 22.02. 7:00 0
Link zu dieser Seite / Seite empfehlen

Das Wetter in ...